createdAt,value
2023-03-31T00:00:20.435Z,9.10
2023-03-31T00:02:47.143Z,9.00
2023-03-31T00:05:18.217Z,8.90
2023-03-31T00:07:46.160Z,8.90
2023-03-31T00:10:18.459Z,8.80
2023-03-31T00:12:46.081Z,8.80
2023-03-31T00:15:12.908Z,8.70
2023-03-31T00:17:49.745Z,8.70
2023-03-31T00:20:17.246Z,8.60
2023-03-31T00:22:49.045Z,8.60
2023-03-31T00:25:16.556Z,8.50
2023-03-31T00:27:44.256Z,8.40
2023-03-31T00:30:12.326Z,8.40
2023-03-31T00:32:39.094Z,8.40
2023-03-31T00:35:06.071Z,8.30
2023-03-31T00:37:35.648Z,8.30
2023-03-31T00:40:02.605Z,8.20
2023-03-31T00:42:29.287Z,8.20
2023-03-31T00:45:14.032Z,8.20
2023-03-31T00:47:42.279Z,8.20
2023-03-31T00:50:21.683Z,8.20
2023-03-31T00:52:54.636Z,8.20
2023-03-31T00:55:24.236Z,8.10
2023-03-31T00:57:53.554Z,8.10
2023-03-31T01:00:21.870Z,8.10
2023-03-31T01:02:56.042Z,8.10
2023-03-31T01:05:24.302Z,8.00
2023-03-31T01:07:51.915Z,8.00
2023-03-31T01:10:18.648Z,8.00
2023-03-31T01:12:50.253Z,8.00
2023-03-31T01:15:17.030Z,8.00
2023-03-31T01:17:45.054Z,8.00
2023-03-31T01:20:19.174Z,8.00
2023-03-31T01:22:59.529Z,7.90
2023-03-31T01:25:29.209Z,7.90
2023-03-31T01:28:05.950Z,7.90
2023-03-31T01:30:42.033Z,7.90
2023-03-31T01:33:08.733Z,7.90
2023-03-31T01:35:53.997Z,7.80
2023-03-31T01:38:39.113Z,7.80
2023-03-31T01:41:14.862Z,7.70
2023-03-31T01:43:52.890Z,7.70
2023-03-31T01:46:31.553Z,7.70
2023-03-31T01:49:16.712Z,7.70
2023-03-31T01:51:46.449Z,7.80
2023-03-31T01:54:20.601Z,7.80
2023-03-31T01:56:55.157Z,7.90
2023-03-31T01:59:28.743Z,7.90
2023-03-31T02:02:10.990Z,7.90
2023-03-31T02:04:42.463Z,7.90
2023-03-31T02:07:17.551Z,8.00
2023-03-31T02:09:47.248Z,8.00
2023-03-31T02:12:14.659Z,8.00
2023-03-31T02:14:43.659Z,8.00
2023-03-31T02:17:15.113Z,8.00
2023-03-31T02:19:44.065Z,8.00
2023-03-31T02:22:11.837Z,8.00
2023-03-31T02:24:40.010Z,8.10
2023-03-31T02:27:09.617Z,8.10
2023-03-31T02:29:36.310Z,8.10
2023-03-31T02:32:09.002Z,8.10
2023-03-31T02:34:35.860Z,8.10
2023-03-31T02:37:02.606Z,8.10
2023-03-31T02:39:34.217Z,8.10
2023-03-31T02:42:07.105Z,8.20
2023-03-31T02:44:34.791Z,8.20
2023-03-31T02:47:02.152Z,8.20
2023-03-31T02:49:29.152Z,8.20
2023-03-31T02:52:14.040Z,8.20
2023-03-31T02:54:46.538Z,8.20
2023-03-31T02:57:33.029Z,8.20
2023-03-31T03:00:26.065Z,8.20
2023-03-31T03:03:11.631Z,8.20
2023-03-31T03:05:49.742Z,8.20
2023-03-31T03:08:25.341Z,8.20
2023-03-31T03:11:12.284Z,8.20
2023-03-31T03:13:38.873Z,8.20
2023-03-31T03:16:05.842Z,8.20
2023-03-31T03:18:32.693Z,8.20
2023-03-31T03:20:59.367Z,8.10
2023-03-31T03:23:26.480Z,8.10
2023-03-31T03:25:53.152Z,8.10
2023-03-31T03:28:20.039Z,8.10
2023-03-31T03:30:47.242Z,8.10
2023-03-31T03:33:17.117Z,8.10
2023-03-31T03:35:44.083Z,8.00
2023-03-31T03:38:10.812Z,8.00
2023-03-31T03:40:37.509Z,8.00
2023-03-31T03:43:04.193Z,8.00
2023-03-31T03:45:30.819Z,8.00
2023-03-31T03:47:57.589Z,8.00
2023-03-31T03:50:24.308Z,8.00
2023-03-31T03:52:51.126Z,8.10
2023-03-31T03:55:18.043Z,8.10
2023-03-31T03:57:44.674Z,8.10
2023-03-31T04:00:12.510Z,8.10
2023-03-31T04:02:40.148Z,8.10
2023-03-31T04:05:07.164Z,8.10
2023-03-31T04:07:33.913Z,8.20
2023-03-31T04:10:00.778Z,8.20
2023-03-31T04:12:27.460Z,8.10
2023-03-31T04:14:54.092Z,8.20
2023-03-31T04:17:33.093Z,8.10
2023-03-31T04:20:05.881Z,8.20
2023-03-31T04:22:35.354Z,8.20
2023-03-31T04:25:03.097Z,8.20
2023-03-31T04:27:30.972Z,8.10
2023-03-31T04:29:57.706Z,8.20
2023-03-31T04:32:24.355Z,8.20
2023-03-31T04:34:51.065Z,8.20
2023-03-31T04:37:17.735Z,8.20
2023-03-31T04:39:46.754Z,8.20
2023-03-31T04:42:13.534Z,8.20
2023-03-31T04:44:40.520Z,8.20
2023-03-31T04:47:07.201Z,8.30
2023-03-31T04:49:34.037Z,8.30
2023-03-31T04:52:00.663Z,8.30
2023-03-31T04:54:27.307Z,8.30
2023-03-31T04:56:54.041Z,8.30
2023-03-31T04:59:20.838Z,8.30
2023-03-31T05:01:48.068Z,8.20
2023-03-31T05:04:14.771Z,8.30
2023-03-31T05:06:41.504Z,8.30
2023-03-31T05:09:09.806Z,8.30
2023-03-31T05:11:36.808Z,8.30
2023-03-31T05:14:04.066Z,8.30
2023-03-31T05:16:30.929Z,8.30
2023-03-31T05:18:57.846Z,8.40
2023-03-31T05:21:26.849Z,8.40
2023-03-31T05:23:53.683Z,8.40
2023-03-31T05:26:20.372Z,8.40
2023-03-31T05:28:46.990Z,8.50
2023-03-31T05:31:14.371Z,8.50
2023-03-31T05:33:42.209Z,8.60
2023-03-31T05:36:10.430Z,8.70
2023-03-31T05:38:37.459Z,8.80
2023-03-31T05:41:04.163Z,8.80
2023-03-31T05:43:30.950Z,8.80
2023-03-31T05:45:57.617Z,8.70
2023-03-31T05:48:24.283Z,8.70
2023-03-31T05:50:50.936Z,8.70
2023-03-31T05:53:17.594Z,8.70
2023-03-31T05:55:44.240Z,8.80
2023-03-31T05:58:10.979Z,8.90
2023-03-31T06:00:37.961Z,8.90
2023-03-31T06:03:07.818Z,9.00
2023-03-31T06:05:34.961Z,9.00
2023-03-31T06:08:01.757Z,9.00
2023-03-31T06:10:28.412Z,8.90
2023-03-31T06:12:55.247Z,9.00
2023-03-31T06:15:21.915Z,9.00
2023-03-31T06:17:48.587Z,9.20
2023-03-31T06:20:27.126Z,9.30
2023-03-31T06:22:55.072Z,9.40
2023-03-31T06:25:21.880Z,9.40
2023-03-31T06:27:48.558Z,9.40
2023-03-31T06:30:15.282Z,9.40
2023-03-31T06:32:42.056Z,9.50
2023-03-31T06:35:08.994Z,9.50
2023-03-31T06:37:36.742Z,9.60
2023-03-31T06:40:04.551Z,9.60
2023-03-31T06:42:31.308Z,9.70
2023-03-31T06:44:58.022Z,9.80
2023-03-31T06:47:24.716Z,9.80
2023-03-31T06:49:51.378Z,9.80
2023-03-31T06:52:18.091Z,9.60
2023-03-31T06:54:44.829Z,9.60
2023-03-31T06:57:11.514Z,9.60
2023-03-31T06:59:38.210Z,9.60
2023-03-31T07:02:05.136Z,9.60
2023-03-31T07:04:31.858Z,9.70
2023-03-31T07:06:59.386Z,9.80
2023-03-31T07:09:26.042Z,9.90
2023-03-31T07:11:52.760Z,10.00
2023-03-31T07:14:23.148Z,10.10
2023-03-31T07:16:50.935Z,10.10
2023-03-31T07:19:17.920Z,10.20
2023-03-31T07:21:44.800Z,10.30
2023-03-31T07:24:11.449Z,10.50
2023-03-31T07:26:38.080Z,10.60
2023-03-31T07:29:04.787Z,10.80
2023-03-31T07:31:31.517Z,11.00
2023-03-31T07:33:58.244Z,11.10
2023-03-31T07:36:25.091Z,11.20
2023-03-31T07:38:51.898Z,11.20
2023-03-31T07:41:20.223Z,11.20
2023-03-31T07:43:47.483Z,11.20
2023-03-31T07:46:15.873Z,11.40
2023-03-31T07:48:43.996Z,11.60
2023-03-31T07:51:10.690Z,11.80
2023-03-31T07:53:37.307Z,12.00
2023-03-31T07:56:04.164Z,12.00
2023-03-31T07:58:31.106Z,12.00
2023-03-31T08:00:57.941Z,12.00
2023-03-31T08:03:24.625Z,12.00
2023-03-31T08:05:52.444Z,11.90
2023-03-31T08:08:19.554Z,11.80
2023-03-31T08:10:46.222Z,11.70
2023-03-31T08:13:12.844Z,11.60
2023-03-31T08:15:39.639Z,11.40
2023-03-31T08:18:06.444Z,11.30
2023-03-31T08:20:33.105Z,11.10
2023-03-31T08:23:00.273Z,11.00
2023-03-31T08:25:26.918Z,10.90
2023-03-31T08:27:53.566Z,10.90
2023-03-31T08:30:20.616Z,10.80
2023-03-31T08:32:47.400Z,10.80
2023-03-31T08:35:14.103Z,10.90
2023-03-31T08:37:40.753Z,10.80
2023-03-31T08:40:11.519Z,10.90
2023-03-31T08:42:43.636Z,11.50
2023-03-31T08:45:29.130Z,11.20
2023-03-31T08:48:14.604Z,11.00
2023-03-31T08:50:45.351Z,11.10
2023-03-31T08:53:21.449Z,10.90
2023-03-31T08:55:52.725Z,10.90
2023-03-31T08:58:39.547Z,10.80
2023-03-31T09:01:19.775Z,10.80
2023-03-31T09:03:53.243Z,10.90
2023-03-31T09:06:24.044Z,11.00
2023-03-31T09:08:51.986Z,11.20
2023-03-31T09:11:40.599Z,11.40
2023-03-31T09:14:25.901Z,11.60
2023-03-31T09:17:14.378Z,11.80
2023-03-31T09:19:41.056Z,11.80
2023-03-31T09:22:13.240Z,11.90
2023-03-31T09:24:50.122Z,12.00
2023-03-31T09:27:16.865Z,12.10
2023-03-31T09:29:46.211Z,12.10
2023-03-31T09:32:20.471Z,12.10
2023-03-31T09:34:47.764Z,12.00
2023-03-31T09:37:14.436Z,11.80
2023-03-31T09:39:41.341Z,11.70
2023-03-31T09:42:10.528Z,11.60
2023-03-31T09:44:44.585Z,11.40
2023-03-31T09:47:16.623Z,11.50
2023-03-31T09:49:53.708Z,11.60
2023-03-31T09:52:31.749Z,11.60
2023-03-31T09:55:00.304Z,11.50
2023-03-31T09:57:30.571Z,11.40
2023-03-31T10:00:02.565Z,11.40
2023-03-31T10:02:35.586Z,11.30
2023-03-31T10:05:03.409Z,11.40
2023-03-31T10:07:30.880Z,11.60
2023-03-31T10:09:57.607Z,11.70
2023-03-31T10:12:25.944Z,11.90
2023-03-31T10:14:53.631Z,12.10
2023-03-31T10:17:22.240Z,12.30
2023-03-31T10:19:58.092Z,12.50
2023-03-31T10:22:29.189Z,12.60
2023-03-31T10:25:07.318Z,12.60
2023-03-31T10:27:34.434Z,12.60
2023-03-31T10:30:01.730Z,12.70
2023-03-31T10:32:32.696Z,12.80
2023-03-31T10:35:03.883Z,12.80
2023-03-31T10:37:31.844Z,12.90
2023-03-31T10:40:17.291Z,12.90
2023-03-31T10:42:50.368Z,12.90
2023-03-31T10:45:35.624Z,12.80
2023-03-31T10:48:03.765Z,12.70
2023-03-31T10:50:32.753Z,12.50
2023-03-31T10:53:01.900Z,12.50
2023-03-31T10:55:49.937Z,12.50
2023-03-31T10:58:16.528Z,12.50
2023-03-31T11:00:59.185Z,12.50
2023-03-31T11:03:37.885Z,12.40
2023-03-31T11:06:13.856Z,12.30
2023-03-31T11:09:01.843Z,12.20
2023-03-31T11:11:31.970Z,12.10
2023-03-31T11:14:04.635Z,12.00
2023-03-31T11:16:37.506Z,12.00
2023-03-31T11:19:25.730Z,11.90
2023-03-31T11:21:57.476Z,11.90
2023-03-31T11:24:31.833Z,11.90
2023-03-31T11:27:05.354Z,11.90
2023-03-31T11:30:04.432Z,11.90
2023-03-31T11:32:42.697Z,11.90
2023-03-31T11:35:28.372Z,11.90
2023-03-31T11:38:01.688Z,11.90
2023-03-31T11:40:48.656Z,11.80
2023-03-31T11:43:24.672Z,11.80
2023-03-31T11:45:53.373Z,11.80
2023-03-31T11:48:32.244Z,11.80
2023-03-31T11:51:01.405Z,11.80
2023-03-31T11:53:31.463Z,11.80
2023-03-31T11:55:59.926Z,11.80
2023-03-31T11:58:33.537Z,11.80
2023-03-31T12:01:05.164Z,11.80
2023-03-31T12:03:47.928Z,11.80
2023-03-31T12:06:19.871Z,11.80
2023-03-31T12:09:08.215Z,11.80
2023-03-31T12:11:41.007Z,12.00
2023-03-31T12:14:22.641Z,12.00
2023-03-31T12:16:51.562Z,12.00
2023-03-31T12:19:24.468Z,11.90
2023-03-31T12:22:11.577Z,11.90
2023-03-31T12:24:38.317Z,11.80
2023-03-31T12:27:21.907Z,11.80
2023-03-31T12:29:53.016Z,11.70
2023-03-31T12:32:22.344Z,11.90
2023-03-31T12:34:53.618Z,11.80
2023-03-31T12:37:31.428Z,11.90
2023-03-31T12:40:08.043Z,11.90
2023-03-31T12:42:46.680Z,12.00
2023-03-31T12:45:24.836Z,11.90
2023-03-31T12:47:51.475Z,11.60
2023-03-31T12:50:50.750Z,11.50
2023-03-31T12:53:23.263Z,11.30
2023-03-31T12:55:54.213Z,11.00
2023-03-31T12:58:26.783Z,11.20
2023-03-31T13:01:05.436Z,11.10
2023-03-31T13:03:34.067Z,10.90
2023-03-31T13:06:01.678Z,10.80
2023-03-31T13:08:47.227Z,10.70
2023-03-31T13:11:13.912Z,10.60
2023-03-31T13:14:03.326Z,10.60
2023-03-31T13:16:33.942Z,10.60
2023-03-31T13:19:00.931Z,10.60
2023-03-31T13:21:27.938Z,10.70
2023-03-31T13:23:58.974Z,10.70
2023-03-31T13:26:34.578Z,10.80
2023-03-31T13:29:17.329Z,10.80
2023-03-31T13:32:02.154Z,10.90
2023-03-31T13:34:46.760Z,10.90
2023-03-31T13:37:16.564Z,10.90
2023-03-31T13:39:43.227Z,10.80
2023-03-31T13:42:38.995Z,10.80
2023-03-31T13:45:24.231Z,10.90
2023-03-31T13:47:57.340Z,10.90
2023-03-31T13:50:42.878Z,10.90
2023-03-31T13:53:28.235Z,10.90
2023-03-31T13:56:21.849Z,10.90
2023-03-31T13:58:54.264Z,10.80
2023-03-31T14:01:30.496Z,10.80
2023-03-31T14:04:09.159Z,10.70
2023-03-31T14:06:38.512Z,10.60
2023-03-31T14:09:10.459Z,10.80
2023-03-31T14:11:37.274Z,11.20
2023-03-31T14:14:15.494Z,11.00
2023-03-31T14:16:45.680Z,10.60
2023-03-31T14:19:31.293Z,10.40
2023-03-31T14:22:11.071Z,10.30
2023-03-31T14:24:43.683Z,10.30
2023-03-31T14:27:39.694Z,10.30
2023-03-31T14:30:17.622Z,10.30
2023-03-31T14:33:01.593Z,10.20
2023-03-31T14:35:39.432Z,10.20
2023-03-31T14:38:09.624Z,10.20
2023-03-31T14:40:44.272Z,10.20
2023-03-31T14:43:18.446Z,10.20
2023-03-31T14:45:45.092Z,10.20
2023-03-31T14:48:13.647Z,10.20
2023-03-31T14:50:44.418Z,10.20
2023-03-31T14:53:16.278Z,10.10
2023-03-31T14:58:23.407Z,10.10
2023-03-31T15:00:50.237Z,10.10
2023-03-31T15:03:17.789Z,10.10
2023-03-31T15:05:47.478Z,10.10
2023-03-31T15:08:17.826Z,10.10
2023-03-31T15:10:46.130Z,10.00
2023-03-31T15:13:16.870Z,10.00
2023-03-31T15:15:46.218Z,9.90
2023-03-31T15:18:14.963Z,9.90
2023-03-31T15:20:42.230Z,9.80
2023-03-31T15:23:38.395Z,9.90
2023-03-31T15:26:09.078Z,9.90
2023-03-31T15:28:49.263Z,9.90
2023-03-31T15:31:16.495Z,10.00
2023-03-31T15:33:43.417Z,9.90
2023-03-31T15:36:14.226Z,9.90
2023-03-31T15:38:41.094Z,9.90
2023-03-31T15:41:14.786Z,9.90
2023-03-31T15:43:42.018Z,9.80
2023-03-31T15:46:16.214Z,9.80
2023-03-31T15:48:53.470Z,9.80
2023-03-31T15:51:20.764Z,9.80
2023-03-31T15:53:48.655Z,9.90
2023-03-31T15:56:28.289Z,10.00
2023-03-31T15:59:03.724Z,10.00
2023-03-31T16:01:35.294Z,10.20
2023-03-31T16:04:06.536Z,10.10
2023-03-31T16:06:39.145Z,10.20
2023-03-31T16:09:10.634Z,10.20
2023-03-31T16:11:52.106Z,10.30
2023-03-31T16:14:24.911Z,10.30
2023-03-31T16:17:00.666Z,10.30
2023-03-31T16:19:30.473Z,10.30
2023-03-31T16:22:00.225Z,10.30
2023-03-31T16:24:33.746Z,10.40
2023-03-31T16:27:06.799Z,10.40
2023-03-31T16:29:34.483Z,10.30
2023-03-31T16:32:12.253Z,10.30
2023-03-31T16:34:52.202Z,10.20
2023-03-31T16:37:19.013Z,10.10
2023-03-31T16:39:45.664Z,10.00
2023-03-31T16:42:12.427Z,9.90
2023-03-31T16:44:40.849Z,9.90
2023-03-31T16:47:08.258Z,9.80
2023-03-31T16:49:34.960Z,9.80
2023-03-31T16:52:01.763Z,9.80
2023-03-31T16:54:28.445Z,9.90
2023-03-31T16:56:55.141Z,9.80
2023-03-31T16:59:21.949Z,9.80
2023-03-31T17:01:48.695Z,10.00
2023-03-31T17:04:15.304Z,9.90
2023-03-31T17:06:42.511Z,9.90
2023-03-31T17:09:09.274Z,9.90
2023-03-31T17:11:36.159Z,9.90
2023-03-31T17:14:04.152Z,9.80
2023-03-31T17:16:40.707Z,9.80
2023-03-31T17:19:14.617Z,9.80
2023-03-31T17:21:41.339Z,9.70
2023-03-31T17:24:08.429Z,9.70
2023-03-31T17:26:36.071Z,9.70
2023-03-31T17:29:02.973Z,9.70
2023-03-31T17:31:31.111Z,9.60
2023-03-31T17:33:58.479Z,9.60
2023-03-31T17:36:25.560Z,9.50
2023-03-31T17:38:52.775Z,9.50
2023-03-31T17:41:19.483Z,9.50
2023-03-31T17:43:46.932Z,9.50
2023-03-31T17:46:14.147Z,9.50
2023-03-31T17:48:41.305Z,9.50
2023-03-31T17:51:09.073Z,9.50
2023-03-31T17:53:36.317Z,9.50
2023-03-31T17:56:03.935Z,9.40
2023-03-31T17:58:31.128Z,9.40
2023-03-31T18:00:57.920Z,9.40
2023-03-31T18:03:24.766Z,9.40
2023-03-31T18:05:51.410Z,9.40
2023-03-31T18:08:18.108Z,9.40
2023-03-31T18:10:45.883Z,9.40
2023-03-31T18:13:12.969Z,9.40
2023-03-31T18:15:39.627Z,9.40
2023-03-31T18:18:06.490Z,9.40
2023-03-31T18:20:33.708Z,9.30
2023-03-31T18:23:02.314Z,9.40
2023-03-31T18:25:29.084Z,9.30
2023-03-31T18:27:55.865Z,9.40
2023-03-31T18:30:22.521Z,9.40
2023-03-31T18:32:49.305Z,9.40
2023-03-31T18:35:16.823Z,9.40
2023-03-31T18:37:43.785Z,9.30
2023-03-31T18:40:10.608Z,9.30
2023-03-31T18:42:37.811Z,9.30
2023-03-31T18:45:04.932Z,9.30
2023-03-31T18:47:31.738Z,9.30
2023-03-31T18:49:58.461Z,9.30
2023-03-31T18:52:25.157Z,9.30
2023-03-31T18:54:52.913Z,9.30
2023-03-31T18:57:19.855Z,9.20
2023-03-31T18:59:46.516Z,9.20
2023-03-31T19:02:14.296Z,9.20
2023-03-31T19:04:44.412Z,9.30
2023-03-31T19:07:11.438Z,9.30
2023-03-31T19:09:38.274Z,9.20
2023-03-31T19:12:05.071Z,9.10
2023-03-31T19:14:31.809Z,9.10
2023-03-31T19:16:58.468Z,9.10
2023-03-31T19:19:25.202Z,9.10
2023-03-31T19:21:52.776Z,9.10
2023-03-31T19:24:19.897Z,9.00
2023-03-31T19:26:46.539Z,9.00
2023-03-31T19:29:13.559Z,9.00
2023-03-31T19:31:41.407Z,9.00
2023-03-31T19:34:11.091Z,9.00
2023-03-31T19:36:38.371Z,8.90
2023-03-31T19:39:08.636Z,8.90
2023-03-31T19:41:35.983Z,8.80
2023-03-31T19:44:02.691Z,8.80
2023-03-31T19:46:29.559Z,8.80
2023-03-31T19:48:56.587Z,8.70
2023-03-31T19:51:24.015Z,8.70
2023-03-31T19:53:50.753Z,8.70
2023-03-31T19:56:17.990Z,8.70
2023-03-31T19:58:45.167Z,8.60
2023-03-31T20:01:16.012Z,8.60
2023-03-31T20:03:43.063Z,8.60
2023-03-31T20:06:11.738Z,8.50
2023-03-31T20:08:39.488Z,8.50
2023-03-31T20:11:07.242Z,8.50
2023-03-31T20:13:36.081Z,8.50
2023-03-31T20:16:04.841Z,8.40
2023-03-31T20:18:31.556Z,8.40
2023-03-31T20:21:02.130Z,8.50
2023-03-31T20:23:28.795Z,8.50
2023-03-31T20:25:55.476Z,8.50
2023-03-31T20:28:22.149Z,8.40
2023-03-31T20:30:50.375Z,8.40
2023-03-31T20:33:17.562Z,8.40
2023-03-31T20:35:44.279Z,8.50
2023-03-31T20:38:10.923Z,8.50
2023-03-31T20:40:37.651Z,8.50
2023-03-31T20:43:04.440Z,8.50
2023-03-31T20:45:31.522Z,8.50
2023-03-31T20:47:58.448Z,8.50
2023-03-31T20:50:25.196Z,8.50
2023-03-31T20:52:51.989Z,8.50
2023-03-31T20:55:18.775Z,8.50
2023-03-31T20:57:45.567Z,8.50
2023-03-31T21:00:12.607Z,8.50
2023-03-31T21:02:39.829Z,8.40
2023-03-31T21:05:06.811Z,8.50
2023-03-31T21:07:33.588Z,8.40
2023-03-31T21:10:00.668Z,8.40
2023-03-31T21:12:27.328Z,8.40
2023-03-31T21:14:54.034Z,8.40
2023-03-31T21:17:20.711Z,8.40
2023-03-31T21:19:47.356Z,8.50
2023-03-31T21:22:14.049Z,8.50
2023-03-31T21:24:40.754Z,8.50
2023-03-31T21:27:07.397Z,8.50
2023-03-31T21:29:34.114Z,8.50
2023-03-31T21:32:02.121Z,8.40
2023-03-31T21:34:28.979Z,8.40
2023-03-31T21:36:55.680Z,8.30
2023-03-31T21:39:22.373Z,8.30
2023-03-31T21:41:48.962Z,8.30
2023-03-31T21:44:16.386Z,8.30
2023-03-31T21:46:45.033Z,8.30
2023-03-31T21:49:11.912Z,8.30
2023-03-31T21:51:38.536Z,8.20
2023-03-31T21:54:05.259Z,8.20
2023-03-31T21:56:32.721Z,8.10
2023-03-31T21:59:00.206Z,8.10
2023-03-31T22:01:26.965Z,8.20
2023-03-31T22:03:53.767Z,8.20
2023-03-31T22:06:21.475Z,8.20
2023-03-31T22:08:48.235Z,8.20
2023-03-31T22:11:14.941Z,8.30
2023-03-31T22:13:41.673Z,8.30
2023-03-31T22:16:15.604Z,8.20
2023-03-31T22:18:42.792Z,8.20
2023-03-31T22:21:23.365Z,8.10
2023-03-31T22:23:54.375Z,8.10
2023-03-31T22:26:21.777Z,8.10
2023-03-31T22:28:48.538Z,8.10
2023-03-31T22:31:15.426Z,8.10
2023-03-31T22:33:42.104Z,8.10
2023-03-31T22:36:08.908Z,8.10
2023-03-31T22:38:35.641Z,8.10
2023-03-31T22:41:02.334Z,8.10
2023-03-31T22:43:29.155Z,8.10
2023-03-31T22:45:55.899Z,8.10
2023-03-31T22:48:22.755Z,8.10
2023-03-31T22:50:49.588Z,8.10
2023-03-31T22:53:16.871Z,8.10
2023-03-31T22:55:44.259Z,8.00
2023-03-31T22:58:21.526Z,8.00
2023-03-31T23:00:55.036Z,8.00
2023-03-31T23:03:21.688Z,8.00
2023-03-31T23:05:48.364Z,8.00
2023-03-31T23:08:14.991Z,8.00
2023-03-31T23:10:41.985Z,8.00
2023-03-31T23:13:08.667Z,8.10
2023-03-31T23:15:35.631Z,8.10
2023-03-31T23:18:02.405Z,8.20
2023-03-31T23:20:29.658Z,8.40
2023-03-31T23:22:56.800Z,8.60
2023-03-31T23:25:23.372Z,8.70
2023-03-31T23:27:50.071Z,8.90
2023-03-31T23:30:16.852Z,8.90
2023-03-31T23:32:43.482Z,9.00
2023-03-31T23:35:11.417Z,9.00
2023-03-31T23:37:38.137Z,9.20
2023-03-31T23:40:05.070Z,9.30
2023-03-31T23:42:31.730Z,9.60
2023-03-31T23:44:58.396Z,9.60
2023-03-31T23:47:25.092Z,9.50
2023-03-31T23:49:52.155Z,9.40
2023-03-31T23:52:18.836Z,9.50
2023-03-31T23:54:45.483Z,9.60
2023-03-31T23:57:12.169Z,9.60
2023-03-31T23:59:38.792Z,9.70
